createdAt,value
2023-05-19T00:01:10.257Z,3.90
2023-05-19T00:04:16.913Z,3.93
2023-05-19T00:07:31.795Z,3.87
2023-05-19T00:10:39.142Z,4.90
2023-05-19T00:13:49.730Z,5.20
2023-05-19T00:16:58.130Z,4.30
2023-05-19T00:20:07.483Z,4.53
2023-05-19T00:23:15.285Z,3.63
2023-05-19T00:26:22.783Z,2.90
2023-05-19T00:29:30.798Z,3.67
2023-05-19T00:32:37.101Z,3.10
2023-05-19T00:35:43.441Z,2.43
2023-05-19T00:38:51.407Z,2.73
2023-05-19T00:41:57.754Z,2.47
2023-05-19T00:45:04.005Z,2.83
2023-05-19T00:48:10.199Z,2.70
2023-05-19T00:51:17.641Z,3.80
2023-05-19T00:54:25.918Z,3.10
2023-05-19T00:57:32.057Z,3.13
2023-05-19T01:00:38.845Z,3.47
2023-05-19T01:03:47.346Z,3.07
2023-05-19T01:06:55.159Z,3.80
2023-05-19T01:10:03.128Z,5.97
2023-05-19T01:13:09.856Z,3.40
2023-05-19T01:16:32.852Z,3.10
2023-05-19T01:19:56.529Z,3.53
2023-05-19T01:23:29.432Z,6.77
2023-05-19T01:26:55.964Z,4.27
2023-05-19T01:30:32.617Z,3.90
2023-05-19T01:33:41.131Z,3.17
2023-05-19T01:36:50.031Z,3.13
2023-05-19T01:39:56.993Z,3.20
2023-05-19T01:43:04.097Z,3.10
2023-05-19T01:46:12.009Z,3.27
2023-05-19T01:49:18.522Z,3.00
2023-05-19T01:52:24.811Z,3.20
2023-05-19T01:55:31.032Z,3.70
2023-05-19T01:58:45.407Z,2.73
2023-05-19T02:01:55.190Z,3.23
2023-05-19T02:05:09.208Z,3.07
2023-05-19T02:08:22.075Z,3.17
2023-05-19T02:11:37.643Z,3.30
2023-05-19T02:14:51.026Z,5.87
2023-05-19T02:18:00.420Z,2.87
2023-05-19T02:21:07.013Z,3.23
2023-05-19T02:24:13.498Z,3.77
2023-05-19T02:27:19.755Z,3.07
2023-05-19T02:30:25.957Z,3.50
2023-05-19T02:33:33.796Z,3.57
2023-05-19T02:36:43.148Z,2.93
2023-05-19T02:39:49.215Z,3.30
2023-05-19T02:42:55.358Z,2.93
2023-05-19T02:46:01.607Z,3.63
2023-05-19T02:49:08.994Z,3.33
2023-05-19T02:52:15.248Z,3.20
2023-05-19T02:55:21.457Z,3.20
2023-05-19T02:58:27.874Z,5.03
2023-05-19T03:01:33.939Z,3.17
2023-05-19T03:04:43.192Z,2.90
2023-05-19T03:07:49.175Z,3.50
2023-05-19T03:10:55.257Z,3.50
2023-05-19T03:14:01.439Z,2.93
2023-05-19T03:17:10.427Z,4.23
2023-05-19T03:20:18.016Z,4.47
2023-05-19T03:23:24.253Z,4.17
2023-05-19T03:26:30.671Z,4.20
2023-05-19T03:29:37.048Z,12.93
2023-05-19T03:32:43.194Z,6.13
2023-05-19T03:35:50.850Z,6.27
2023-05-19T03:38:57.353Z,5.53
2023-05-19T03:42:03.757Z,9.73
2023-05-19T03:45:10.540Z,7.40
2023-05-19T03:48:19.080Z,4.57
2023-05-19T03:51:30.177Z,3.63
2023-05-19T03:54:39.016Z,3.63
2023-05-19T03:57:45.432Z,4.50
2023-05-19T04:00:51.745Z,4.43
2023-05-19T04:03:58.336Z,7.03
2023-05-19T04:07:06.074Z,4.13
2023-05-19T04:10:13.584Z,4.87
2023-05-19T04:13:19.857Z,8.60
2023-05-19T04:16:26.386Z,9.30
2023-05-19T04:19:32.715Z,8.63
2023-05-19T04:22:40.284Z,5.87
2023-05-19T04:25:48.858Z,5.23
2023-05-19T04:28:56.670Z,4.80
2023-05-19T04:32:06.930Z,4.20
2023-05-19T04:35:13.850Z,4.10
2023-05-19T04:38:22.380Z,4.10
2023-05-19T04:41:28.934Z,6.33
2023-05-19T04:44:35.271Z,4.97
2023-05-19T04:47:42.235Z,4.07
2023-05-19T04:50:49.687Z,4.00
2023-05-19T04:53:58.186Z,4.37
2023-05-19T04:57:05.308Z,9.30
2023-05-19T05:00:14.634Z,4.80
2023-05-19T05:03:23.152Z,4.20
2023-05-19T05:06:29.622Z,3.47
2023-05-19T05:09:37.534Z,4.03
2023-05-19T05:12:44.467Z,9.80
2023-05-19T05:15:52.514Z,5.97
2023-05-19T05:18:59.164Z,4.33
2023-05-19T05:22:06.347Z,3.10
2023-05-19T05:25:16.443Z,4.13
2023-05-19T05:28:23.157Z,8.50
2023-05-19T05:31:29.487Z,6.00
2023-05-19T05:34:37.807Z,7.67
2023-05-19T05:37:44.161Z,6.00
2023-05-19T05:40:52.080Z,6.57
2023-05-19T05:43:58.361Z,4.67
2023-05-19T05:47:05.229Z,6.70
2023-05-19T05:50:12.722Z,4.20
2023-05-19T05:53:20.807Z,5.27
2023-05-19T05:56:29.499Z,5.73
2023-05-19T05:59:35.656Z,8.40
2023-05-19T06:02:42.063Z,4.40
2023-05-19T06:05:48.597Z,7.40
2023-05-19T06:08:54.900Z,7.50
2023-05-19T06:12:02.761Z,5.93
2023-05-19T06:15:09.919Z,11.27
2023-05-19T06:18:16.780Z,7.13
2023-05-19T06:21:22.878Z,7.50
2023-05-19T06:24:29.183Z,5.20
2023-05-19T06:27:37.221Z,9.07
2023-05-19T06:30:43.382Z,5.07
2023-05-19T06:33:49.439Z,6.47
2023-05-19T06:36:55.487Z,5.63
2023-05-19T06:40:01.665Z,8.20
2023-05-19T06:43:09.549Z,4.53
2023-05-19T06:46:18.022Z,6.07
2023-05-19T06:49:24.231Z,6.60
2023-05-19T06:52:30.638Z,6.13
2023-05-19T06:55:43.876Z,8.10
2023-05-19T06:58:58.609Z,9.30
2023-05-19T07:02:05.497Z,6.07
2023-05-19T07:05:12.105Z,4.70
2023-05-19T07:08:18.409Z,5.30
2023-05-19T07:11:24.513Z,4.60
2023-05-19T07:14:32.056Z,3.70
2023-05-19T07:17:38.641Z,5.13
2023-05-19T07:20:44.686Z,5.73
2023-05-19T07:23:50.913Z,6.60
2023-05-19T07:26:57.138Z,4.97
2023-05-19T07:30:05.243Z,4.80
2023-05-19T07:33:11.423Z,6.17
2023-05-19T07:36:17.761Z,4.93
2023-05-19T07:39:27.992Z,4.30
2023-05-19T07:42:34.504Z,4.10
2023-05-19T07:45:42.342Z,4.03
2023-05-19T07:48:48.804Z,4.87
2023-05-19T07:51:55.169Z,3.97
2023-05-19T07:55:01.753Z,7.30
2023-05-19T07:58:08.466Z,3.93
2023-05-19T08:01:16.556Z,4.50
2023-05-19T08:04:23.128Z,5.13
2023-05-19T08:07:29.340Z,4.03
2023-05-19T08:10:36.019Z,3.50
2023-05-19T08:13:42.507Z,4.17
2023-05-19T08:16:50.182Z,4.87
2023-05-19T08:19:56.917Z,3.83
2023-05-19T08:23:04.366Z,3.67
2023-05-19T08:26:10.878Z,4.07
2023-05-19T08:29:17.462Z,5.17
2023-05-19T08:32:25.057Z,4.27
2023-05-19T08:35:31.996Z,4.10
2023-05-19T08:38:38.169Z,5.80
2023-05-19T08:41:44.355Z,4.07
2023-05-19T08:44:50.727Z,4.50
2023-05-19T08:47:58.708Z,3.60
2023-05-19T08:51:12.556Z,5.07
2023-05-19T08:54:20.892Z,3.83
2023-05-19T08:57:27.434Z,3.73
2023-05-19T09:00:34.455Z,26.63
2023-05-19T09:03:43.274Z,5.67
2023-05-19T09:06:50.457Z,3.80
2023-05-19T09:09:56.553Z,4.20
2023-05-19T09:13:03.003Z,5.10
2023-05-19T09:16:09.563Z,3.50
2023-05-19T09:19:17.550Z,4.33
2023-05-19T09:22:25.618Z,3.50
2023-05-19T09:25:32.376Z,3.60
2023-05-19T09:28:38.948Z,4.17
2023-05-19T09:31:52.489Z,3.87
2023-05-19T09:35:00.285Z,3.63
2023-05-19T09:38:06.504Z,3.80
2023-05-19T09:41:16.097Z,5.20
2023-05-19T09:44:29.053Z,4.00
2023-05-19T09:47:36.893Z,4.63
2023-05-19T09:50:46.888Z,5.67
2023-05-19T09:53:54.247Z,5.10
2023-05-19T09:57:01.389Z,4.40
2023-05-19T10:00:15.787Z,4.30
2023-05-19T10:03:24.080Z,5.07
2023-05-19T10:06:32.265Z,4.37
2023-05-19T10:09:39.416Z,4.50
2023-05-19T10:12:46.694Z,5.07
2023-05-19T10:15:59.438Z,5.33
2023-05-19T10:19:08.200Z,5.37
2023-05-19T10:22:15.584Z,5.73
2023-05-19T10:25:22.121Z,4.77
2023-05-19T10:28:36.909Z,4.57
2023-05-19T10:31:44.715Z,6.17
2023-05-19T10:35:08.889Z,6.00
2023-05-19T10:38:28.471Z,4.50
2023-05-19T10:41:44.003Z,5.03
2023-05-19T10:45:03.921Z,5.53
2023-05-19T10:48:12.800Z,4.50
2023-05-19T10:51:19.253Z,4.37
2023-05-19T10:54:43.717Z,5.57
2023-05-19T10:57:57.900Z,4.37
2023-05-19T11:01:08.279Z,4.83
2023-05-19T11:04:16.076Z,5.07
2023-05-19T11:07:24.866Z,8.85
2023-05-19T11:10:33.372Z,4.50
2023-05-19T11:13:42.592Z,5.07
2023-05-19T11:16:49.679Z,5.70
2023-05-19T11:19:56.859Z,4.85
2023-05-19T11:23:07.296Z,4.93
2023-05-19T11:26:14.877Z,5.35
2023-05-19T11:29:22.384Z,4.47
2023-05-19T11:32:30.024Z,4.50
2023-05-19T11:35:37.906Z,4.50
2023-05-19T11:38:44.588Z,4.88
2023-05-19T11:41:57.039Z,5.18
2023-05-19T11:45:03.477Z,5.55
2023-05-19T11:48:13.466Z,5.70
2023-05-19T11:51:22.967Z,5.60
2023-05-19T11:54:33.412Z,6.90
2023-05-19T11:57:44.720Z,7.57
2023-05-19T12:00:54.254Z,8.30
2023-05-19T12:04:00.813Z,6.97
2023-05-19T12:07:07.488Z,4.63
2023-05-19T12:10:13.702Z,8.57
2023-05-19T12:13:22.820Z,4.87
2023-05-19T12:16:35.520Z,4.67
2023-05-19T12:19:42.538Z,5.47
2023-05-19T12:22:49.698Z,5.60
2023-05-19T12:25:55.962Z,5.30
2023-05-19T12:29:03.701Z,4.47
2023-05-19T12:32:10.548Z,4.37
2023-05-19T12:35:17.473Z,5.93
2023-05-19T12:38:24.299Z,6.57
2023-05-19T12:41:30.869Z,6.40
2023-05-19T12:44:40.628Z,11.18
2023-05-19T12:47:49.637Z,7.03
2023-05-19T12:50:56.192Z,5.15
2023-05-19T12:54:04.048Z,6.03
2023-05-19T12:57:12.415Z,5.43
2023-05-19T13:00:22.861Z,4.87
2023-05-19T13:03:29.098Z,6.33
2023-05-19T13:06:35.325Z,6.73
2023-05-19T13:09:41.369Z,4.67
2023-05-19T13:12:47.648Z,6.87
2023-05-19T13:15:55.615Z,5.23
2023-05-19T13:19:02.151Z,5.53
2023-05-19T13:22:08.526Z,4.70
2023-05-19T13:25:14.433Z,6.00
2023-05-19T13:28:20.396Z,5.23
2023-05-19T13:31:27.900Z,5.60
2023-05-19T13:34:34.354Z,5.00
2023-05-19T13:37:40.743Z,5.17
2023-05-19T13:40:47.272Z,4.13
2023-05-19T13:43:53.783Z,5.53
2023-05-19T13:47:01.743Z,4.10
2023-05-19T13:50:09.091Z,7.33
2023-05-19T13:53:15.397Z,5.20
2023-05-19T13:56:21.693Z,3.60
2023-05-19T13:59:28.434Z,4.53
2023-05-19T14:02:36.478Z,5.50
2023-05-19T14:05:42.738Z,5.70
2023-05-19T14:08:48.960Z,4.00
2023-05-19T14:11:55.187Z,4.10
2023-05-19T14:15:02.833Z,17.80
2023-05-19T14:18:10.299Z,4.10
2023-05-19T14:21:16.980Z,5.20
2023-05-19T14:24:23.729Z,5.57
2023-05-19T14:27:29.787Z,5.03
2023-05-19T14:30:35.963Z,4.27
2023-05-19T14:33:44.190Z,4.73
2023-05-19T14:36:50.272Z,3.83
2023-05-19T14:39:57.030Z,5.43
2023-05-19T14:43:03.285Z,5.03
2023-05-19T14:46:09.208Z,6.17
2023-05-19T14:49:16.786Z,4.67
2023-05-19T14:52:23.403Z,4.80
2023-05-19T14:55:29.934Z,5.23
2023-05-19T14:58:36.208Z,4.53
2023-05-19T15:01:43.635Z,4.03
2023-05-19T15:04:51.306Z,4.10
2023-05-19T15:07:57.759Z,5.43
2023-05-19T15:11:03.958Z,6.13
2023-05-19T15:14:10.067Z,4.53
2023-05-19T15:17:16.762Z,4.67
2023-05-19T15:20:24.210Z,4.47
2023-05-19T15:23:30.435Z,5.50
2023-05-19T15:26:36.365Z,5.23
2023-05-19T15:29:42.299Z,4.50
2023-05-19T15:32:48.716Z,6.30
2023-05-19T15:35:56.212Z,4.63
2023-05-19T15:39:03.836Z,5.23
2023-05-19T15:42:10.212Z,5.57
2023-05-19T15:45:16.324Z,4.50
2023-05-19T15:48:22.499Z,4.57
2023-05-19T15:51:31.365Z,4.80
2023-05-19T15:54:37.586Z,7.17
2023-05-19T15:57:43.847Z,7.50
2023-05-19T16:00:50.150Z,8.10
2023-05-19T16:03:56.637Z,8.13
2023-05-19T16:07:04.034Z,6.37
2023-05-19T16:10:10.957Z,5.57
2023-05-19T16:13:17.213Z,5.80
2023-05-19T16:16:23.192Z,5.70
2023-05-19T16:19:29.392Z,5.43
2023-05-19T16:22:36.952Z,14.97
2023-05-19T16:25:43.320Z,14.07
2023-05-19T16:28:49.341Z,9.90
2023-05-19T16:31:55.311Z,9.23
2023-05-19T16:35:01.301Z,10.87
2023-05-19T16:38:08.736Z,14.40
2023-05-19T16:41:14.952Z,11.90
2023-05-19T16:44:20.976Z,11.10
2023-05-19T16:47:27.216Z,8.87
2023-05-19T16:50:33.383Z,11.87
2023-05-19T16:53:41.342Z,11.97
2023-05-19T16:56:47.377Z,7.57
2023-05-19T16:59:53.384Z,10.90
2023-05-19T17:02:59.469Z,11.97
2023-05-19T17:06:05.717Z,16.43
2023-05-19T17:09:13.266Z,18.20
2023-05-19T17:12:19.437Z,14.40
2023-05-19T17:15:25.459Z,17.13
2023-05-19T17:18:31.813Z,21.37
2023-05-19T17:21:38.354Z,20.97
2023-05-19T17:24:46.082Z,18.37
2023-05-19T17:27:52.507Z,12.40
2023-05-19T17:30:58.856Z,15.20
2023-05-19T17:34:04.844Z,20.37
2023-05-19T17:37:10.931Z,20.23
2023-05-19T17:40:18.511Z,18.67
2023-05-19T17:43:24.615Z,37.70
2023-05-19T17:46:34.765Z,16.50
2023-05-19T17:49:41.613Z,36.27
2023-05-19T17:52:48.926Z,28.23
2023-05-19T17:56:00.515Z,14.87
2023-05-19T17:59:07.591Z,25.97
2023-05-19T18:02:15.337Z,29.43
2023-05-19T18:05:22.878Z,35.40
2023-05-19T18:08:30.283Z,20.93
2023-05-19T18:11:38.571Z,14.93
2023-05-19T18:14:44.926Z,10.53
2023-05-19T18:17:51.615Z,8.50
2023-05-19T18:20:57.849Z,11.87
2023-05-19T18:24:05.527Z,12.43
2023-05-19T18:27:13.280Z,480.17
2023-05-19T18:30:20.556Z,793.57
2023-05-19T18:33:28.554Z,280.73
2023-05-19T18:36:36.549Z,45.90
2023-05-19T18:39:42.860Z,92.00
2023-05-19T18:42:51.204Z,43.20
2023-05-19T18:45:58.406Z,42.00
2023-05-19T18:49:05.763Z,53.10
2023-05-19T18:52:12.411Z,109.30
2023-05-19T18:55:19.082Z,72.90
2023-05-19T18:58:26.916Z,17.07
2023-05-19T19:01:33.331Z,15.50
2023-05-19T19:04:39.636Z,19.70
2023-05-19T19:07:45.867Z,17.63
2023-05-19T19:10:53.672Z,17.73
2023-05-19T19:14:01.572Z,15.73
2023-05-19T19:17:08.051Z,12.67
2023-05-19T19:20:14.889Z,15.10
2023-05-19T19:23:21.074Z,9.77
2023-05-19T19:26:29.143Z,11.10
2023-05-19T19:29:36.672Z,10.67
2023-05-19T19:32:42.852Z,10.97
2023-05-19T19:35:49.016Z,10.23
2023-05-19T19:38:55.081Z,25.20
2023-05-19T19:42:01.079Z,14.03
2023-05-19T19:45:09.477Z,13.63
2023-05-19T19:48:15.800Z,22.60
2023-05-19T19:51:21.963Z,15.93
2023-05-19T19:54:27.987Z,15.87
2023-05-19T19:57:34.419Z,8.43
2023-05-19T20:00:42.140Z,12.07
2023-05-19T20:03:48.522Z,29.87
2023-05-19T20:06:54.606Z,18.37
2023-05-19T20:10:00.887Z,13.60
2023-05-19T20:13:07.588Z,21.00
2023-05-19T20:16:15.338Z,7.77
2023-05-19T20:19:22.039Z,12.10
2023-05-19T20:22:28.028Z,10.80
2023-05-19T20:25:34.930Z,14.47
2023-05-19T20:28:41.777Z,14.87
2023-05-19T20:31:49.673Z,14.07
2023-05-19T20:34:55.956Z,10.73
2023-05-19T20:38:01.970Z,11.23
2023-05-19T20:41:08.356Z,13.60
2023-05-19T20:44:14.786Z,11.10
2023-05-19T20:47:22.654Z,14.57
2023-05-19T20:50:29.013Z,14.77
2023-05-19T20:53:35.223Z,11.70
2023-05-19T20:56:41.484Z,14.67
2023-05-19T20:59:47.612Z,15.53
2023-05-19T21:02:55.346Z,16.37
2023-05-19T21:06:01.827Z,18.07
2023-05-19T21:09:08.307Z,15.00
2023-05-19T21:12:16.267Z,13.27
2023-05-19T21:15:22.580Z,15.10
2023-05-19T21:18:30.148Z,16.67
2023-05-19T21:21:38.435Z,19.57
2023-05-19T21:24:44.687Z,16.10
2023-05-19T21:27:51.188Z,15.63
2023-05-19T21:30:57.566Z,16.43
2023-05-19T21:34:07.277Z,16.50
2023-05-19T21:37:13.904Z,21.67
2023-05-19T21:40:20.358Z,16.17
2023-05-19T21:43:26.592Z,11.93
2023-05-19T21:46:32.835Z,14.07
2023-05-19T21:49:40.829Z,9.30
2023-05-19T21:52:47.072Z,6.30
2023-05-19T21:55:53.115Z,6.07
2023-05-19T21:58:59.230Z,6.23
2023-05-19T22:02:05.804Z,9.47
2023-05-19T22:05:13.983Z,10.73
2023-05-19T22:08:22.423Z,8.90
2023-05-19T22:11:28.471Z,6.87
2023-05-19T22:14:34.776Z,6.30
2023-05-19T22:17:41.070Z,11.73
2023-05-19T22:20:48.547Z,12.97
2023-05-19T22:23:54.941Z,8.63
2023-05-19T22:27:01.058Z,11.23
2023-05-19T22:30:08.726Z,10.50
2023-05-19T22:33:15.193Z,8.30
2023-05-19T22:36:23.170Z,7.17
2023-05-19T22:39:29.748Z,6.53
2023-05-19T22:42:36.025Z,13.17
2023-05-19T22:45:42.229Z,10.60
2023-05-19T22:48:48.578Z,9.97
2023-05-19T22:51:56.273Z,9.53
2023-05-19T22:55:02.601Z,14.03
2023-05-19T22:58:09.151Z,7.97
2023-05-19T23:01:15.206Z,11.80
2023-05-19T23:04:21.310Z,10.33
2023-05-19T23:07:28.708Z,8.13
2023-05-19T23:10:34.912Z,7.23
2023-05-19T23:13:41.141Z,11.00
2023-05-19T23:16:47.459Z,12.33
2023-05-19T23:19:53.621Z,8.80
2023-05-19T23:23:01.288Z,8.20
2023-05-19T23:26:07.863Z,8.00
2023-05-19T23:29:14.898Z,7.87
2023-05-19T23:32:21.279Z,10.83
2023-05-19T23:35:27.321Z,7.30
2023-05-19T23:38:34.906Z,12.53
2023-05-19T23:41:41.320Z,10.50
2023-05-19T23:44:47.523Z,12.00
2023-05-19T23:47:53.697Z,13.13
2023-05-19T23:51:00.022Z,19.50
2023-05-19T23:54:07.583Z,8.70
2023-05-19T23:57:14.073Z,10.17
